createdAt,value
2018-12-18T00:00:06.474Z,4.80
2018-12-18T00:01:06.461Z,4.90
2018-12-18T00:02:06.429Z,4.30
2018-12-18T00:03:06.415Z,5.40
2018-12-18T00:04:06.407Z,4.70
2018-12-18T00:05:06.420Z,4.80
2018-12-18T00:06:06.385Z,5.00
2018-12-18T00:07:06.392Z,5.10
2018-12-18T00:08:06.363Z,4.80
2018-12-18T00:09:06.362Z,4.60
2018-12-18T00:10:06.363Z,4.50
2018-12-18T00:11:06.329Z,4.90
2018-12-18T00:12:06.318Z,4.60
2018-12-18T00:13:06.346Z,5.40
2018-12-18T00:14:06.295Z,5.10
2018-12-18T00:15:06.313Z,4.90
2018-12-18T00:16:06.274Z,5.20
2018-12-18T00:17:06.261Z,6.10
2018-12-18T00:18:06.251Z,4.60
2018-12-18T00:19:06.258Z,5.10
2018-12-18T00:20:06.251Z,5.10
2018-12-18T00:21:06.221Z,5.60
2018-12-18T00:22:06.206Z,6.00
2018-12-18T00:23:06.194Z,5.10
2018-12-18T00:24:06.182Z,5.80
2018-12-18T00:25:06.214Z,5.80
2018-12-18T00:26:06.160Z,5.00
2018-12-18T00:27:06.150Z,5.50
2018-12-18T00:28:06.138Z,5.80
2018-12-18T00:29:06.129Z,5.30
2018-12-18T00:30:06.140Z,6.20
2018-12-18T00:31:06.122Z,5.10
2018-12-18T00:32:06.094Z,5.40
2018-12-18T00:33:06.083Z,6.40
2018-12-18T00:34:06.070Z,6.10
2018-12-18T00:35:06.083Z,6.90
2018-12-18T00:36:06.051Z,6.70
2018-12-18T00:37:06.051Z,5.70
2018-12-18T00:38:06.025Z,6.20
2018-12-18T00:39:06.015Z,5.30
2018-12-18T00:40:06.106Z,6.00
2018-12-18T00:41:05.997Z,5.40
2018-12-18T00:42:05.983Z,6.10
2018-12-18T00:43:05.990Z,6.20
2018-12-18T00:44:05.988Z,5.90
2018-12-18T00:45:05.974Z,5.60
2018-12-18T00:46:05.940Z,5.60
2018-12-18T00:47:05.932Z,5.10
2018-12-18T00:48:05.920Z,6.10
2018-12-18T00:49:05.939Z,5.30
2018-12-18T00:50:05.925Z,5.30
2018-12-18T00:51:05.886Z,5.60
2018-12-18T00:52:05.870Z,5.60
2018-12-18T00:53:05.860Z,5.60
2018-12-18T00:54:05.851Z,6.30
2018-12-18T00:55:05.862Z,5.40
2018-12-18T00:56:05.852Z,4.90
2018-12-18T00:57:05.819Z,6.10
2018-12-18T00:58:05.807Z,5.40
2018-12-18T00:59:05.796Z,5.50
2018-12-18T01:00:05.786Z,5.90
2018-12-18T01:01:05.801Z,5.80
2018-12-18T01:02:05.767Z,5.20
2018-12-18T01:03:05.758Z,5.80
2018-12-18T01:04:05.739Z,5.90
2018-12-18T01:05:05.732Z,5.50
2018-12-18T01:06:05.751Z,5.90
2018-12-18T01:07:05.726Z,6.10
2018-12-18T01:08:05.695Z,5.30
2018-12-18T01:09:05.686Z,5.70
2018-12-18T01:10:05.678Z,6.10
2018-12-18T01:11:05.698Z,6.00
2018-12-18T01:12:05.661Z,5.50
2018-12-18T01:13:05.661Z,5.00
2018-12-18T01:14:05.632Z,4.40
2018-12-18T01:15:05.633Z,4.60
2018-12-18T01:16:05.642Z,5.00
2018-12-18T01:17:05.666Z,5.30
2018-12-18T01:18:05.586Z,5.00
2018-12-18T01:19:05.589Z,4.90
2018-12-18T01:20:05.563Z,4.80
2018-12-18T01:21:05.584Z,4.90
2018-12-18T01:22:05.548Z,5.60
2018-12-18T01:23:05.534Z,5.20
2018-12-18T01:24:05.521Z,5.00
2018-12-18T01:25:05.530Z,5.00
2018-12-18T01:26:05.523Z,4.40
2018-12-18T01:27:05.486Z,5.20
2018-12-18T01:28:05.484Z,4.80
2018-12-18T01:29:05.467Z,5.00
2018-12-18T01:30:05.456Z,5.30
2018-12-18T01:31:05.480Z,5.60
2018-12-18T01:32:05.439Z,5.00
2018-12-18T01:33:05.424Z,5.80
2018-12-18T01:34:05.417Z,5.20
2018-12-18T01:35:05.400Z,5.40
2018-12-18T01:36:05.417Z,5.50
2018-12-18T01:37:05.391Z,5.90
2018-12-18T01:38:05.370Z,5.50
2018-12-18T01:39:05.360Z,5.50
2018-12-18T01:40:05.347Z,5.40
2018-12-18T01:41:05.358Z,5.70
2018-12-18T01:42:05.332Z,5.50
2018-12-18T01:43:05.338Z,6.40
2018-12-18T01:44:05.302Z,6.50
2018-12-18T01:45:05.294Z,5.90
2018-12-18T01:46:05.310Z,6.20
2018-12-18T01:47:05.268Z,6.50
2018-12-18T01:48:05.262Z,6.70
2018-12-18T01:49:05.267Z,6.60
2018-12-18T01:50:05.238Z,6.40
2018-12-18T01:51:05.257Z,6.30
2018-12-18T01:52:05.222Z,6.30
2018-12-18T01:53:05.206Z,6.30
2018-12-18T01:54:05.195Z,6.40
2018-12-18T01:55:05.195Z,7.20
2018-12-18T01:56:05.335Z,6.00
2018-12-18T01:57:05.161Z,6.80
2018-12-18T01:58:05.163Z,7.00
2018-12-18T01:59:05.141Z,6.30
2018-12-18T02:00:05.129Z,6.40
2018-12-18T02:01:05.162Z,7.10
2018-12-18T02:02:05.107Z,7.10
2018-12-18T02:03:05.103Z,7.00
2018-12-18T02:04:06.136Z,6.80
2018-12-18T02:05:05.074Z,6.60
2018-12-18T02:06:05.087Z,6.70
2018-12-18T02:07:05.070Z,6.90
2018-12-18T02:08:05.041Z,5.60
2018-12-18T02:09:05.032Z,6.20
2018-12-18T02:10:05.020Z,6.90
2018-12-18T02:11:05.033Z,6.60
2018-12-18T02:12:05.000Z,6.80
2018-12-18T02:13:05.012Z,6.40
2018-12-18T02:14:04.976Z,6.90
2018-12-18T02:15:04.964Z,7.00
2018-12-18T02:16:04.977Z,6.50
2018-12-18T02:17:04.949Z,7.10
2018-12-18T02:18:04.935Z,7.10
2018-12-18T02:19:04.939Z,6.80
2018-12-18T02:20:04.913Z,7.00
2018-12-18T02:21:04.923Z,6.30
2018-12-18T02:22:04.895Z,7.10
2018-12-18T02:23:04.878Z,6.00
2018-12-18T02:24:04.878Z,6.70
2018-12-18T02:25:04.886Z,6.20
2018-12-18T02:26:04.846Z,6.50
2018-12-18T02:27:04.857Z,6.70
2018-12-18T02:28:04.824Z,6.90
2018-12-18T02:29:04.813Z,6.10
2018-12-18T02:30:04.803Z,6.80
2018-12-18T02:31:04.806Z,7.20
2018-12-18T02:32:04.806Z,7.00
2018-12-18T02:33:04.770Z,6.70
2018-12-18T02:34:04.766Z,5.80
2018-12-18T02:35:04.748Z,6.50
2018-12-18T02:36:04.738Z,6.40
2018-12-18T02:37:04.764Z,6.70
2018-12-18T02:38:04.722Z,6.80
2018-12-18T02:39:04.709Z,6.20
2018-12-18T02:40:04.701Z,6.60
2018-12-18T02:41:04.684Z,6.70
2018-12-18T02:42:04.707Z,6.50
2018-12-18T02:43:04.674Z,6.40
2018-12-18T02:44:04.680Z,6.30
2018-12-18T02:45:04.638Z,7.00
2018-12-18T02:46:04.631Z,6.20
2018-12-18T02:47:04.663Z,6.50
2018-12-18T02:48:04.604Z,7.30
2018-12-18T02:49:04.607Z,6.40
2018-12-18T02:50:04.590Z,6.30
2018-12-18T02:51:04.575Z,6.00
2018-12-18T02:52:04.583Z,6.60
2018-12-18T02:53:04.553Z,6.00
2018-12-18T02:54:04.540Z,7.00
2018-12-18T02:55:04.526Z,7.00
2018-12-18T02:56:04.537Z,7.20
2018-12-18T02:57:04.532Z,7.40
2018-12-18T02:58:04.497Z,7.00
2018-12-18T02:59:04.482Z,6.80
2018-12-18T03:00:04.472Z,7.10
2018-12-18T03:01:04.460Z,7.00
2018-12-18T03:02:04.495Z,7.60
2018-12-18T03:03:04.438Z,7.10
2018-12-18T03:04:04.429Z,7.30
2018-12-18T03:05:04.422Z,6.80
2018-12-18T03:06:04.409Z,7.40
2018-12-18T03:07:04.425Z,7.60
2018-12-18T03:08:04.412Z,7.30
2018-12-18T03:09:04.375Z,8.30
2018-12-18T03:10:04.364Z,7.80
2018-12-18T03:11:04.350Z,7.70
2018-12-18T03:12:04.366Z,7.30
2018-12-18T03:13:04.331Z,7.40
2018-12-18T03:14:04.342Z,7.20
2018-12-18T03:15:04.313Z,9.00
2018-12-18T03:16:04.298Z,8.10
2018-12-18T03:17:04.287Z,8.60
2018-12-18T03:18:04.297Z,7.80
2018-12-18T03:19:04.267Z,8.70
2018-12-18T03:20:04.290Z,8.50
2018-12-18T03:21:04.246Z,8.40
2018-12-18T03:22:04.252Z,8.00
2018-12-18T03:23:04.246Z,8.00
2018-12-18T03:24:04.211Z,7.90
2018-12-18T03:25:04.198Z,7.90
2018-12-18T03:26:04.196Z,7.60
2018-12-18T03:27:04.178Z,8.20
2018-12-18T03:28:04.197Z,8.90
2018-12-18T03:29:04.158Z,8.00
2018-12-18T03:30:04.147Z,7.80
2018-12-18T03:31:04.134Z,9.20
2018-12-18T03:32:04.167Z,8.90
2018-12-18T03:33:04.140Z,8.90
2018-12-18T03:34:04.101Z,7.90
2018-12-18T03:35:04.088Z,7.60
2018-12-18T03:36:04.078Z,8.80
2018-12-18T03:37:04.067Z,7.90
2018-12-18T03:38:04.094Z,7.40
2018-12-18T03:39:04.046Z,7.20
2018-12-18T03:40:04.052Z,7.90
2018-12-18T03:41:04.023Z,8.00
2018-12-18T03:42:04.012Z,7.60
2018-12-18T03:43:04.036Z,7.90
2018-12-18T03:44:04.003Z,8.20
2018-12-18T03:45:03.992Z,8.10
2018-12-18T03:46:03.977Z,7.40
2018-12-18T03:47:03.957Z,7.80
2018-12-18T03:48:03.950Z,8.10
2018-12-18T03:49:03.972Z,7.60
2018-12-18T03:50:03.962Z,7.90
2018-12-18T03:51:03.918Z,8.30
2018-12-18T03:52:03.918Z,7.80
2018-12-18T03:53:03.893Z,8.10
2018-12-18T03:54:03.921Z,7.30
2018-12-18T03:55:04.001Z,8.50
2018-12-18T03:56:03.872Z,8.10
2018-12-18T03:57:03.846Z,8.20
2018-12-18T03:58:03.893Z,8.30
2018-12-18T03:59:03.828Z,7.00
2018-12-18T04:00:03.856Z,8.10
2018-12-18T04:01:03.807Z,8.10
2018-12-18T04:02:03.831Z,6.90
2018-12-18T04:03:03.783Z,7.70
2018-12-18T04:04:03.773Z,7.40
2018-12-18T04:05:03.791Z,7.90
2018-12-18T04:06:03.748Z,8.60
2018-12-18T04:07:03.739Z,8.20
2018-12-18T04:08:03.742Z,8.00
2018-12-18T04:09:03.719Z,8.40
2018-12-18T04:10:03.739Z,8.10
2018-12-18T04:11:03.701Z,8.10
2018-12-18T04:12:03.686Z,7.30
2018-12-18T04:13:03.686Z,7.80
2018-12-18T04:14:03.666Z,7.70
2018-12-18T04:15:03.688Z,8.20
2018-12-18T04:16:03.641Z,6.90
2018-12-18T04:17:03.634Z,7.70
2018-12-18T04:18:03.622Z,7.80
2018-12-18T04:19:03.622Z,7.70
2018-12-18T04:20:03.635Z,8.10
2018-12-18T04:21:03.594Z,7.50
2018-12-18T04:22:03.645Z,8.10
2018-12-18T04:23:03.605Z,7.70
2018-12-18T04:24:03.556Z,8.00
2018-12-18T04:25:03.595Z,8.60
2018-12-18T04:26:03.537Z,8.10
2018-12-18T04:27:03.521Z,8.30
2018-12-18T04:28:03.512Z,7.10
2018-12-18T04:29:03.517Z,7.80
2018-12-18T04:30:03.521Z,7.80
2018-12-18T04:31:03.508Z,8.00
2018-12-18T04:32:03.475Z,7.80
2018-12-18T04:33:03.457Z,8.50
2018-12-18T04:34:03.450Z,8.40
2018-12-18T04:35:03.472Z,8.60
2018-12-18T04:36:03.424Z,8.10
2018-12-18T04:37:03.426Z,8.20
2018-12-18T04:38:03.402Z,8.10
2018-12-18T04:39:03.412Z,8.50
2018-12-18T04:40:03.413Z,7.80
2018-12-18T04:41:03.416Z,8.00
2018-12-18T04:42:03.358Z,7.40
2018-12-18T04:43:03.362Z,7.60
2018-12-18T04:44:03.337Z,7.40
2018-12-18T04:45:03.372Z,7.70
2018-12-18T04:46:03.329Z,8.00
2018-12-18T04:47:03.307Z,8.00
2018-12-18T04:48:03.299Z,8.10
2018-12-18T04:49:03.281Z,7.50
2018-12-18T04:50:03.328Z,7.30
2018-12-18T04:51:03.261Z,7.40
2018-12-18T04:52:03.249Z,7.70
2018-12-18T04:53:03.250Z,8.00
2018-12-18T04:54:03.227Z,7.80
2018-12-18T04:55:03.250Z,8.10
2018-12-18T04:56:03.227Z,8.60
2018-12-18T04:57:03.195Z,7.60
2018-12-18T04:58:03.184Z,7.20
2018-12-18T04:59:03.173Z,7.30
2018-12-18T05:00:03.273Z,7.00
2018-12-18T05:01:03.150Z,5.90
2018-12-18T05:02:03.168Z,7.40
2018-12-18T05:03:03.128Z,7.10
2018-12-18T05:04:03.960Z,6.90
2018-12-18T05:05:03.107Z,6.90
2018-12-18T05:06:03.127Z,7.00
2018-12-18T05:07:03.086Z,7.00
2018-12-18T05:08:03.082Z,7.20
2018-12-18T05:09:03.063Z,7.10
2018-12-18T05:10:03.050Z,6.70
2018-12-18T05:11:03.079Z,6.60
2018-12-18T05:12:03.035Z,6.30
2018-12-18T05:13:03.016Z,6.60
2018-12-18T05:14:03.021Z,6.30
2018-12-18T05:15:02.997Z,6.20
2018-12-18T05:16:03.017Z,6.40
2018-12-18T05:17:02.989Z,5.80
2018-12-18T05:18:02.964Z,5.60
2018-12-18T05:19:02.970Z,5.70
2018-12-18T05:20:02.963Z,6.10
2018-12-18T05:21:02.969Z,6.00
2018-12-18T05:22:02.917Z,5.90
2018-12-18T05:23:02.909Z,6.00
2018-12-18T05:24:02.897Z,6.20
2018-12-18T05:25:02.889Z,5.80
2018-12-18T05:26:02.921Z,5.30
2018-12-18T05:27:02.874Z,6.20
2018-12-18T05:28:02.853Z,5.70
2018-12-18T05:29:02.843Z,5.80
2018-12-18T05:30:02.834Z,6.10
2018-12-18T05:31:02.864Z,5.80
2018-12-18T05:32:02.817Z,6.90
2018-12-18T05:33:02.799Z,5.80
2018-12-18T05:34:02.790Z,5.80
2018-12-18T05:35:02.776Z,6.60
2018-12-18T05:36:02.763Z,5.60
2018-12-18T05:37:02.786Z,5.70
2018-12-18T05:38:02.764Z,6.10
2018-12-18T05:39:02.776Z,5.90
2018-12-18T05:40:02.722Z,6.30
2018-12-18T05:41:02.712Z,6.40
2018-12-18T05:42:02.737Z,6.70
2018-12-18T05:43:02.688Z,6.80
2018-12-18T05:44:02.706Z,6.80
2018-12-18T05:45:02.668Z,6.70
2018-12-18T05:46:02.657Z,6.20
2018-12-18T05:47:02.708Z,6.30
2018-12-18T05:48:02.639Z,6.20
2018-12-18T05:49:02.624Z,6.10
2018-12-18T05:50:02.628Z,5.90
2018-12-18T05:51:02.602Z,6.00
2018-12-18T05:52:02.621Z,6.80
2018-12-18T05:53:02.579Z,6.30
2018-12-18T05:54:02.569Z,6.20
2018-12-18T05:55:02.566Z,6.00
2018-12-18T05:56:02.551Z,5.60
2018-12-18T05:57:02.567Z,5.80
2018-12-18T05:58:02.523Z,5.50
2018-12-18T05:59:02.512Z,5.00
2018-12-18T06:00:02.506Z,5.20
2018-12-18T06:01:02.508Z,5.90
2018-12-18T06:02:02.512Z,5.10
2018-12-18T06:03:02.471Z,5.40
2018-12-18T06:04:02.457Z,5.00
2018-12-18T06:05:03.414Z,5.10
2018-12-18T06:06:02.437Z,4.30
2018-12-18T06:07:02.466Z,4.80
2018-12-18T06:08:02.482Z,4.30
2018-12-18T06:09:02.404Z,4.60
2018-12-18T06:10:02.395Z,4.30
2018-12-18T06:11:02.385Z,4.80
2018-12-18T06:12:02.371Z,4.40
2018-12-18T06:13:02.404Z,4.30
2018-12-18T06:14:02.358Z,4.30
2018-12-18T06:15:02.337Z,3.60
2018-12-18T06:16:02.329Z,3.70
2018-12-18T06:17:02.316Z,3.70
2018-12-18T06:18:02.343Z,3.80
2018-12-18T06:19:02.305Z,3.80
2018-12-18T06:20:02.295Z,3.50
2018-12-18T06:21:02.276Z,3.50
2018-12-18T06:22:02.264Z,3.20
2018-12-18T06:23:02.281Z,4.00
2018-12-18T06:24:02.239Z,3.40
2018-12-18T06:25:02.292Z,2.90
2018-12-18T06:26:02.220Z,3.80
2018-12-18T06:27:02.210Z,3.80
2018-12-18T06:28:02.228Z,3.90
2018-12-18T06:29:02.185Z,3.90
2018-12-18T06:30:02.183Z,3.30
2018-12-18T06:31:02.232Z,3.20
2018-12-18T06:32:02.186Z,3.10
2018-12-18T06:33:02.177Z,2.70
2018-12-18T06:34:02.132Z,3.10
2018-12-18T06:35:02.119Z,3.00
2018-12-18T06:36:02.114Z,3.70
2018-12-18T06:37:02.100Z,3.20
2018-12-18T06:38:02.145Z,3.00
2018-12-18T06:39:02.151Z,3.10
2018-12-18T06:40:02.072Z,3.50
2018-12-18T06:41:02.054Z,3.20
2018-12-18T06:42:02.049Z,2.70
2018-12-18T06:43:02.092Z,3.10
2018-12-18T06:44:02.046Z,2.70
2018-12-18T06:45:02.066Z,3.20
2018-12-18T06:46:02.072Z,3.00
2018-12-18T06:47:01.991Z,3.20
2018-12-18T06:48:01.978Z,2.80
2018-12-18T06:49:02.043Z,2.40
2018-12-18T06:50:02.002Z,2.40
2018-12-18T06:51:01.959Z,2.80
2018-12-18T06:52:01.937Z,2.40
2018-12-18T06:53:01.923Z,2.30
2018-12-18T06:54:01.948Z,2.60
2018-12-18T06:55:01.908Z,2.60
2018-12-18T06:56:01.891Z,2.80
2018-12-18T06:57:01.903Z,2.60
2018-12-18T06:58:01.887Z,2.40
2018-12-18T06:59:01.892Z,2.50
2018-12-18T07:00:01.857Z,2.50
2018-12-18T07:01:01.839Z,2.20
2018-12-18T07:02:01.836Z,2.60
2018-12-18T07:03:01.816Z,2.80
2018-12-18T07:04:01.855Z,2.30
2018-12-18T07:05:01.792Z,2.60
2018-12-18T07:06:01.857Z,2.20
2018-12-18T07:07:01.771Z,2.70
2018-12-18T07:08:01.779Z,2.70
2018-12-18T07:09:01.806Z,2.20
2018-12-18T07:10:01.741Z,2.90
2018-12-18T07:11:01.742Z,2.50
2018-12-18T07:12:01.821Z,2.80
2018-12-18T07:13:01.709Z,2.20
2018-12-18T07:14:01.720Z,3.00
2018-12-18T07:15:01.695Z,3.00
2018-12-18T07:16:01.734Z,3.00
2018-12-18T07:17:01.696Z,2.90
2018-12-18T07:18:01.697Z,3.00
2018-12-18T07:19:01.642Z,2.40
2018-12-18T07:20:01.653Z,2.90
2018-12-18T07:21:01.647Z,2.40
2018-12-18T07:22:01.627Z,2.80
2018-12-18T07:23:01.598Z,3.00
2018-12-18T07:24:01.618Z,2.50
2018-12-18T07:25:01.588Z,2.60
2018-12-18T07:26:01.596Z,2.70
2018-12-18T07:27:01.603Z,2.60
2018-12-18T07:28:01.582Z,2.60
2018-12-18T07:29:01.531Z,2.30
2018-12-18T07:30:01.551Z,2.30
2018-12-18T07:31:01.549Z,2.50
2018-12-18T07:32:01.504Z,2.70
2018-12-18T07:33:01.488Z,2.80
2018-12-18T07:34:01.480Z,2.30
2018-12-18T07:35:01.544Z,2.40
2018-12-18T07:36:01.459Z,2.60
2018-12-18T07:37:01.514Z,2.30
2018-12-18T07:38:01.437Z,2.60
2018-12-18T07:39:01.427Z,2.10
2018-12-18T07:40:01.417Z,2.50
2018-12-18T07:41:01.407Z,2.70
2018-12-18T07:42:01.433Z,2.60
2018-12-18T07:43:01.380Z,3.00
2018-12-18T07:44:01.381Z,2.60
2018-12-18T07:45:01.360Z,2.50
2018-12-18T07:46:01.345Z,2.70
2018-12-18T07:47:01.783Z,2.80
2018-12-18T07:48:02.277Z,2.70
2018-12-18T07:49:02.207Z,2.70
2018-12-18T07:50:31.033Z,2.90
2018-12-18T07:51:02.198Z,2.40
2018-12-18T07:52:05.477Z,2.70
2018-12-18T07:53:01.374Z,2.30
2018-12-18T07:54:02.247Z,1.80
2018-12-18T07:55:01.522Z,2.40
2018-12-18T07:56:01.292Z,2.00
2018-12-18T07:57:01.288Z,1.50
2018-12-18T07:58:01.281Z,2.00
2018-12-18T07:59:01.227Z,1.80
2018-12-18T08:00:01.213Z,1.70
2018-12-18T08:01:01.183Z,1.90
2018-12-18T08:02:01.193Z,2.00
2018-12-18T08:03:01.222Z,2.10
2018-12-18T08:04:01.148Z,1.60
2018-12-18T08:05:01.182Z,1.40
2018-12-18T08:06:01.135Z,1.70
2018-12-18T08:07:01.296Z,1.40
2018-12-18T08:08:01.106Z,1.30
2018-12-18T08:09:01.170Z,1.10
2018-12-18T08:10:01.172Z,1.30
2018-12-18T08:11:01.071Z,1.20
2018-12-18T08:12:01.179Z,1.30
2018-12-18T08:13:01.099Z,1.40
2018-12-18T08:14:01.115Z,1.20
2018-12-18T08:15:01.052Z,1.70
2018-12-18T08:16:01.036Z,1.30
2018-12-18T08:17:01.195Z,1.60
2018-12-18T08:18:01.007Z,1.60
2018-12-18T08:19:01.777Z,1.70
2018-12-18T08:20:01.212Z,1.60
2018-12-18T08:21:01.793Z,1.50
2018-12-18T08:22:01.038Z,1.30
2018-12-18T08:23:00.964Z,1.40
2018-12-18T08:24:00.936Z,1.40
2018-12-18T08:25:00.948Z,1.10
2018-12-18T08:26:00.926Z,1.40
2018-12-18T08:27:00.962Z,1.20
2018-12-18T08:28:00.900Z,1.50
2018-12-18T08:29:00.917Z,1.10
2018-12-18T08:30:00.858Z,1.40
2018-12-18T08:31:00.854Z,1.60
2018-12-18T08:32:00.864Z,1.50
2018-12-18T08:33:00.870Z,1.60
2018-12-18T08:34:00.819Z,1.30
2018-12-18T08:35:00.808Z,1.30
2018-12-18T08:36:00.790Z,2.00
2018-12-18T08:37:00.805Z,1.50
2018-12-18T08:38:00.773Z,1.80
2018-12-18T08:39:00.768Z,1.50
2018-12-18T08:40:00.746Z,1.60
2018-12-18T08:41:00.748Z,1.50
2018-12-18T08:42:00.749Z,1.20
2018-12-18T08:43:00.717Z,1.30
2018-12-18T08:44:00.711Z,1.20
2018-12-18T08:45:00.697Z,1.10
2018-12-18T08:46:00.687Z,1.10
2018-12-18T08:47:00.779Z,1.20
2018-12-18T08:48:00.666Z,1.20
2018-12-18T08:49:00.651Z,1.30
2018-12-18T08:50:00.660Z,1.40
2018-12-18T08:51:00.625Z,1.20
2018-12-18T08:52:00.669Z,1.00
2018-12-18T08:53:00.602Z,1.10
2018-12-18T08:54:00.633Z,1.20
2018-12-18T08:55:00.627Z,1.20
2018-12-18T08:56:00.574Z,1.40
2018-12-18T08:57:00.730Z,1.10
2018-12-18T08:58:00.654Z,1.20
2018-12-18T08:59:00.549Z,1.10
2018-12-18T09:00:00.534Z,1.20
2018-12-18T09:01:00.531Z,0.80
2018-12-18T09:02:00.555Z,1.00
2018-12-18T09:03:00.508Z,0.80
2018-12-18T09:04:00.496Z,1.00
2018-12-18T09:05:00.498Z,1.30
2018-12-18T09:06:00.483Z,1.20
2018-12-18T09:07:00.469Z,1.00
2018-12-18T09:08:00.439Z,1.10
2018-12-18T09:09:00.449Z,1.10
2018-12-18T09:10:00.414Z,1.10
2018-12-18T09:11:00.427Z,1.20
2018-12-18T09:12:00.457Z,0.90
2018-12-18T09:13:00.383Z,1.20
2018-12-18T09:14:00.366Z,0.80
2018-12-18T09:15:00.368Z,1.40
2018-12-18T09:16:00.472Z,1.20
2018-12-18T09:17:00.363Z,1.20
2018-12-18T09:18:00.321Z,1.40
2018-12-18T09:19:00.353Z,1.20
2018-12-18T09:20:00.312Z,1.20
2018-12-18T09:21:00.288Z,1.40
2018-12-18T09:22:00.342Z,1.00
2018-12-18T09:23:00.268Z,1.20
2018-12-18T09:24:00.258Z,1.10
2018-12-18T09:25:00.278Z,1.30
2018-12-18T09:26:00.247Z,1.10
2018-12-18T09:27:00.233Z,1.20
2018-12-18T09:28:00.238Z,1.10
2018-12-18T09:29:00.224Z,1.00
2018-12-18T09:30:00.194Z,1.10
2018-12-18T09:31:00.183Z,1.00
2018-12-18T09:32:00.213Z,1.10
2018-12-18T09:33:00.237Z,1.00
2018-12-18T09:34:00.282Z,1.20
2018-12-18T09:35:00.139Z,1.10
2018-12-18T09:36:00.139Z,1.10
2018-12-18T09:37:00.180Z,1.20
2018-12-18T09:38:00.270Z,1.40
2018-12-18T09:39:00.136Z,1.20
2018-12-18T09:40:00.341Z,1.10
2018-12-18T09:41:00.118Z,0.90
2018-12-18T09:42:00.120Z,1.10
2018-12-18T09:43:00.126Z,0.90
2018-12-18T09:44:00.059Z,0.70
2018-12-18T09:45:00.060Z,1.10
2018-12-18T09:46:00.058Z,0.90
2018-12-18T09:47:00.028Z,1.10
2018-12-18T09:48:00.082Z,1.00
2018-12-18T09:49:00.048Z,0.90
2018-12-18T09:50:00.360Z,1.00
2018-12-18T09:50:59.987Z,0.90
2018-12-18T09:51:59.977Z,0.70
2018-12-18T09:53:00.034Z,0.80
2018-12-18T09:53:59.928Z,0.60
2018-12-18T09:54:59.910Z,0.80
2018-12-18T09:55:59.898Z,0.70
2018-12-18T09:56:59.886Z,0.80
2018-12-18T09:57:59.958Z,1.00
2018-12-18T09:58:59.908Z,0.90
2018-12-18T09:59:59.925Z,0.80
2018-12-18T10:00:59.896Z,0.80
2018-12-18T10:01:59.895Z,0.80
2018-12-18T10:02:59.848Z,0.80
2018-12-18T10:03:59.838Z,0.70
2018-12-18T10:04:59.882Z,0.90
2018-12-18T10:05:59.796Z,0.70
2018-12-18T10:06:59.784Z,1.20
2018-12-18T10:07:59.893Z,1.00
2018-12-18T10:08:59.827Z,1.20
2018-12-18T10:09:59.783Z,1.50
2018-12-18T10:10:59.776Z,1.30
2018-12-18T10:11:59.807Z,1.20
2018-12-18T10:12:59.839Z,0.80
2018-12-18T10:13:59.755Z,1.00
2018-12-18T10:14:59.770Z,1.10
2018-12-18T10:15:59.714Z,1.10
2018-12-18T10:16:59.700Z,1.00
2018-12-18T10:17:59.679Z,0.90
2018-12-18T10:18:59.640Z,1.10
2018-12-18T10:19:59.631Z,1.40
2018-12-18T10:20:59.622Z,1.40
2018-12-18T10:21:59.629Z,1.30
2018-12-18T10:22:59.634Z,1.20
2018-12-18T10:23:59.582Z,1.50
2018-12-18T10:24:59.601Z,1.60
2018-12-18T10:25:59.561Z,1.40
2018-12-18T10:26:59.555Z,1.40
2018-12-18T10:27:59.600Z,1.00
2018-12-18T10:28:59.529Z,1.00
2018-12-18T10:29:59.524Z,1.20
2018-12-18T10:30:59.506Z,1.30
2018-12-18T10:31:59.523Z,1.30
2018-12-18T10:32:59.506Z,1.30
2018-12-18T10:33:59.479Z,1.00
2018-12-18T10:34:59.467Z,1.00
2018-12-18T10:36:02.913Z,0.90
2018-12-18T10:36:59.483Z,1.00
2018-12-18T10:37:59.459Z,0.90
2018-12-18T10:38:59.418Z,1.40
2018-12-18T10:39:59.407Z,0.90
2018-12-18T10:40:59.395Z,0.90
2018-12-18T10:41:59.403Z,1.00
2018-12-18T10:42:59.406Z,1.10
2018-12-18T10:43:59.361Z,1.40
2018-12-18T10:44:59.366Z,1.00
2018-12-18T10:45:59.344Z,1.10
2018-12-18T10:46:59.339Z,1.70
2018-12-18T10:47:59.327Z,1.80
2018-12-18T10:48:59.350Z,1.20
2018-12-18T10:49:59.294Z,1.10
2018-12-18T10:50:59.284Z,0.60
2018-12-18T10:51:59.278Z,1.00
2018-12-18T10:52:59.269Z,0.90
2018-12-18T10:53:59.288Z,0.90
2018-12-18T10:54:59.286Z,1.00
2018-12-18T10:55:59.242Z,1.00
2018-12-18T10:56:59.215Z,1.20
2018-12-18T10:57:59.212Z,1.70
2018-12-18T10:58:59.220Z,1.30
2018-12-18T10:59:59.248Z,0.80
2018-12-18T11:00:59.203Z,1.20
2018-12-18T11:01:59.164Z,0.90
2018-12-18T11:02:59.152Z,1.00
2018-12-18T11:03:59.195Z,0.90
2018-12-18T11:04:59.130Z,0.90
2018-12-18T11:05:59.116Z,1.00
2018-12-18T11:06:59.110Z,0.90
2018-12-18T11:07:59.095Z,1.30
2018-12-18T11:08:59.113Z,1.20
2018-12-18T11:09:59.072Z,1.20
2018-12-18T11:10:59.070Z,1.40
2018-12-18T11:11:59.049Z,1.00
2018-12-18T11:12:59.049Z,1.10
2018-12-18T11:13:59.053Z,1.30
2018-12-18T11:14:59.028Z,1.40
2018-12-18T11:15:59.028Z,1.00
2018-12-18T11:16:59.005Z,1.10
2018-12-18T11:17:58.990Z,0.80
2018-12-18T11:18:59.032Z,0.90
2018-12-18T11:19:58.997Z,0.80
2018-12-18T11:20:58.956Z,0.80
2018-12-18T11:21:58.967Z,1.00
2018-12-18T11:22:58.929Z,1.20
2018-12-18T11:23:58.954Z,1.10
2018-12-18T11:24:58.952Z,1.20
2018-12-18T11:25:58.914Z,1.20
2018-12-18T11:26:58.903Z,1.20
2018-12-18T11:27:58.896Z,0.80
2018-12-18T11:28:58.907Z,0.70
2018-12-18T11:29:58.873Z,1.10
2018-12-18T11:30:58.855Z,1.10
2018-12-18T11:31:58.833Z,0.70
2018-12-18T11:32:58.814Z,0.80
2018-12-18T11:33:58.848Z,1.30
2018-12-18T11:34:58.815Z,1.40
2018-12-18T11:35:58.791Z,0.90
2018-12-18T11:36:58.807Z,1.00
2018-12-18T11:37:58.769Z,1.20
2018-12-18T11:38:58.776Z,1.20
2018-12-18T11:39:58.768Z,1.10
2018-12-18T11:40:58.730Z,1.00
2018-12-18T11:41:58.725Z,1.50
2018-12-18T11:42:58.729Z,1.00
2018-12-18T11:43:58.738Z,1.10
2018-12-18T11:44:58.720Z,1.10
2018-12-18T11:45:58.715Z,1.20
2018-12-18T11:46:58.664Z,1.20
2018-12-18T11:47:58.643Z,1.10
2018-12-18T11:48:58.704Z,1.30
2018-12-18T11:49:58.661Z,1.30
2018-12-18T11:50:58.626Z,1.10
2018-12-18T11:51:58.638Z,1.00
2018-12-18T11:52:58.590Z,1.20
2018-12-18T11:53:58.602Z,1.20
2018-12-18T11:54:58.582Z,1.00
2018-12-18T11:55:58.553Z,1.40
2018-12-18T11:56:58.542Z,1.20
2018-12-18T11:57:58.538Z,1.40
2018-12-18T11:58:58.541Z,0.90
2018-12-18T11:59:58.515Z,1.50
2018-12-18T12:00:58.506Z,1.70
2018-12-18T12:01:58.491Z,1.30
2018-12-18T12:02:58.488Z,1.10
2018-12-18T12:03:58.488Z,1.70
2018-12-18T12:04:58.473Z,1.30
2018-12-18T12:05:58.442Z,1.20
2018-12-18T12:06:58.431Z,1.30
2018-12-18T12:07:58.424Z,1.70
2018-12-18T12:08:58.431Z,1.60
2018-12-18T12:09:58.396Z,1.40
2018-12-18T12:10:58.385Z,1.50
2018-12-18T12:11:58.377Z,1.30
2018-12-18T12:12:58.370Z,1.20
2018-12-18T12:13:58.381Z,1.30
2018-12-18T12:14:58.341Z,1.70
2018-12-18T12:15:58.338Z,1.00
2018-12-18T12:16:58.337Z,1.70
2018-12-18T12:17:58.320Z,1.20
2018-12-18T12:18:58.320Z,1.40
2018-12-18T12:19:58.289Z,1.30
2018-12-18T12:20:58.284Z,1.80
2018-12-18T12:21:58.279Z,1.90
2018-12-18T12:22:58.250Z,1.70
2018-12-18T12:23:58.270Z,1.80
2018-12-18T12:24:58.229Z,1.40
2018-12-18T12:25:58.225Z,1.70
2018-12-18T12:26:58.205Z,1.60
2018-12-18T12:27:58.215Z,1.80
2018-12-18T12:28:58.210Z,1.70
2018-12-18T12:29:58.173Z,1.60
2018-12-18T12:30:58.169Z,1.60
2018-12-18T12:31:58.151Z,1.40
2018-12-18T12:32:58.148Z,1.40
2018-12-18T12:33:58.176Z,1.50
2018-12-18T12:34:58.119Z,1.50
2018-12-18T12:35:58.110Z,1.60
2018-12-18T12:36:58.103Z,1.80
2018-12-18T12:37:58.085Z,1.50
2018-12-18T12:38:58.109Z,1.70
2018-12-18T12:39:58.086Z,1.60
2018-12-18T12:40:58.057Z,1.70
2018-12-18T12:41:58.043Z,2.10
2018-12-18T12:42:58.029Z,1.40
2018-12-18T12:43:58.021Z,1.30
2018-12-18T12:44:58.032Z,1.50
2018-12-18T12:45:58.029Z,1.70
2018-12-18T12:46:57.987Z,1.20
2018-12-18T12:47:57.987Z,1.60
2018-12-18T12:48:57.972Z,1.50
2018-12-18T12:49:57.980Z,2.00
2018-12-18T12:50:57.948Z,1.70
2018-12-18T12:51:57.939Z,1.90
2018-12-18T12:52:57.930Z,1.60
2018-12-18T12:53:57.913Z,1.80
2018-12-18T12:54:57.933Z,1.80
2018-12-18T12:55:57.893Z,1.70
2018-12-18T12:56:57.883Z,2.20
2018-12-18T12:57:57.866Z,1.90
2018-12-18T12:58:57.857Z,1.90
2018-12-18T12:59:57.866Z,2.20
2018-12-18T13:00:57.832Z,2.20
2018-12-18T13:01:57.823Z,2.40
2018-12-18T13:02:57.813Z,2.10
2018-12-18T13:03:57.806Z,2.00
2018-12-18T13:04:57.818Z,2.10
2018-12-18T13:05:57.777Z,1.80
2018-12-18T13:06:57.767Z,1.70
2018-12-18T13:07:57.755Z,1.80
2018-12-18T13:08:57.745Z,2.00
2018-12-18T13:09:57.763Z,1.70
2018-12-18T13:10:57.740Z,2.10
2018-12-18T13:11:57.716Z,1.80
2018-12-18T13:12:57.702Z,1.70
2018-12-18T13:13:57.700Z,1.70
2018-12-18T13:14:57.719Z,1.90
2018-12-18T13:15:57.669Z,1.80
2018-12-18T13:16:57.673Z,2.00
2018-12-18T13:17:57.652Z,1.60